Time;durP1;ratioP1;P1;durP2;ratioP2;P2;SDS_P1;SDS_P2;PMS_P1;PMS_P2;Temp;Humidity;BMP_temperature;BMP_pressure;BME280_temperature;BME280_humidity;BME280_pressure;Samples;Min_cycle;Max_cycle;Signal;HPM_P1;HPM_P2
2023/06/26 00:01:31;;;;;;;18.92;13.63;;;;;;;20.80;65.84;94789.66;5091818;28;20089;-77
2023/06/26 00:04:00;;;;;;;17.45;14.27;;;;;;;20.77;65.83;94784.34;5091380;28;20036;-77
2023/06/26 00:06:25;;;;;;;15.68;13.75;;;;;;;20.73;65.82;94786.63;5092219;28;20047;-78
2023/06/26 00:08:55;;;;;;;15.98;13.73;;;;;;;20.74;66.20;94788.13;5092525;28;20032;-78
2023/06/26 00:11:21;;;;;;;17.27;13.13;;;;;;;20.75;66.27;94784.84;5090655;28;20051;-78
2023/06/26 00:13:47;;;;;;;14.85;12.02;;;;;;;20.76;66.04;94788.38;5092150;28;20118;-78
2023/06/26 00:16:12;;;;;;;15.73;13.18;;;;;;;20.78;65.61;94783.06;5092610;28;20128;-77
2023/06/26 00:18:38;;;;;;;14.70;12.27;;;;;;;20.77;65.94;94787.91;5090424;28;20028;-77
2023/06/26 00:21:03;;;;;;;15.13;12.93;;;;;;;20.74;65.70;94788.91;5092571;28;20035;-78
2023/06/26 00:23:30;;;;;;;15.90;13.55;;;;;;;20.71;66.16;94786.38;5091575;28;20035;-78
2023/06/26 00:25:56;;;;;;;16.05;12.82;;;;;;;20.70;66.39;94782.78;5092428;28;20028;-78
2023/06/26 00:28:21;;;;;;;13.65;12.18;;;;;;;20.65;66.30;94781.53;5091885;28;20034;-77
2023/06/26 00:30:47;;;;;;;17.35;12.57;;;;;;;20.66;66.24;94777.47;5091924;28;20399;-77
2023/06/26 00:33:12;;;;;;;15.70;11.70;;;;;;;20.68;66.26;94777.72;5090821;28;20031;-78
2023/06/26 00:35:37;;;;;;;15.50;12.48;;;;;;;20.63;66.37;94774.94;5091843;28;20031;-78
2023/06/26 00:38:03;;;;;;;14.85;11.93;;;;;;;20.62;66.31;94767.81;5092583;28;20023;-78
2023/06/26 00:40:28;;;;;;;15.70;12.00;;;;;;;20.58;66.51;94775.69;5091882;28;20025;-78
2023/06/26 00:42:54;;;;;;;13.30;11.60;;;;;;;20.60;66.38;94775.97;5092749;28;20095;-78
2023/06/26 00:45:19;;;;;;;13.63;11.77;;;;;;;20.61;66.26;94775.44;5091699;28;20502;-77
2023/06/26 00:47:44;;;;;;;13.23;11.20;;;;;;;20.60;66.10;94779.50;5092083;28;20012;-77
2023/06/26 00:50:10;;;;;;;14.52;11.88;;;;;;;20.63;66.22;94781.28;5091454;28;20526;-77
2023/06/26 00:52:36;;;;;;;14.45;10.82;;;;;;;20.64;66.09;94771.66;5090508;28;20078;-77
2023/06/26 00:55:02;;;;;;;14.18;11.48;;;;;;;20.63;66.47;94772.13;5091868;28;20077;-78
2023/06/26 00:57:27;;;;;;;12.40;10.82;;;;;;;20.62;66.25;94763.00;5091353;28;20028;-77
2023/06/26 00:59:53;;;;;;;11.90;10.15;;;;;;;20.61;66.21;94772.66;5092327;28;20059;-77
2023/06/26 01:02:19;;;;;;;13.75;10.52;;;;;;;20.62;66.01;94767.81;5089974;28;20077;-78
2023/06/26 01:04:49;;;;;;;14.57;10.70;;;;;;;20.61;66.33;94763.50;5088827;28;20078;-78
2023/06/26 01:07:16;;;;;;;13.45;11.27;;;;;;;20.57;66.43;94763.75;5086985;28;20031;-76
2023/06/26 01:09:42;;;;;;;13.07;11.30;;;;;;;20.59;66.22;94757.69;5088477;28;20080;-77
2023/06/26 01:12:07;;;;;;;11.52;10.32;;;;;;;;;;5087456;28;20435;-78
2023/06/26 01:14:35;;;;;;;12.50;10.80;;;;;;;20.53;66.47;94756.88;5088044;28;20085;-77
2023/06/26 01:17:01;;;;;;;13.10;10.35;;;;;;;20.48;66.50;94746.50;5087717;28;20032;-78
2023/06/26 01:19:33;;;;;;;13.15;10.73;;;;;;;20.47;66.32;94737.34;5086848;28;20024;-77
2023/06/26 01:22:11;;;;;;;13.15;10.68;;;;;;;20.43;66.44;94743.16;5087285;28;20481;-77
2023/06/26 01:24:39;;;;;;;15.25;10.75;;;;;;;20.41;66.67;94742.91;5087138;28;20028;-78
2023/06/26 01:27:05;;;;;;;12.82;10.60;;;;;;;20.39;66.55;94742.66;5086692;28;20180;-78
2023/06/26 01:29:31;;;;;;;13.40;10.35;;;;;;;20.35;66.85;94741.38;5087477;28;20401;-78
2023/06/26 01:31:56;;;;;;;13.15;10.75;;;;;;;20.33;66.87;94739.09;5085925;28;20043;-78
2023/06/26 01:34:22;;;;;;;13.15;10.52;;;;;;;20.38;66.66;94732.00;5088848;28;20028;-78
2023/06/26 01:36:47;;;;;;;13.48;10.60;;;;;;;20.35;66.75;94730.97;5087241;28;20113;-78
2023/06/26 01:39:17;;;;;;;14.48;10.75;;;;;;;20.30;66.53;94728.94;5088753;28;20021;-78
2023/06/26 01:41:43;;;;;;;12.55;11.07;;;;;;;20.31;66.71;94730.47;5087660;28;20020;-78
2023/06/26 01:44:24;;;;;;;13.48;11.07;;;;;;;20.27;66.82;94741.13;5087880;28;20108;-77
2023/06/26 01:47:03;;;;;;;11.57;10.02;;;;;;;20.31;66.60;94730.47;5087094;28;20047;-78
2023/06/26 01:49:44;;;;;;;13.95;10.63;;;;;;;20.27;66.41;94732.75;5085870;28;20568;-77
2023/06/26 01:52:27;;;;;;;13.48;10.82;;;;;;;20.26;66.29;94739.59;5088061;28;20024;-77
2023/06/26 01:55:01;;;;;;;14.40;11.23;;;;;;;20.23;66.25;94731.47;5086021;28;20051;-78
2023/06/26 01:57:28;;;;;;;13.07;10.88;;;;;;;20.19;66.75;94717.78;5087632;28;20508;-78
2023/06/26 01:59:55;;;;;;;13.02;10.85;;;;;;;20.19;66.29;94728.94;5087834;28;20024;-79
2023/06/26 02:02:20;;;;;;;12.35;11.05;;;;;;;20.23;66.21;94729.44;5087076;28;20028;-76
2023/06/26 02:04:48;;;;;;;12.18;10.82;;;;;;;20.17;66.07;94717.50;5069909;28;20020;-78
2023/06/26 02:07:13;;;;;;;13.75;11.63;;;;;;;20.14;66.11;94719.28;5087016;28;20028;-77
2023/06/26 02:09:39;;;;;;;13.63;11.18;;;;;;;20.06;66.70;94731.44;5088058;28;20027;-77
2023/06/26 02:12:04;;;;;;;16.20;12.23;;;;;;;20.03;66.84;94722.06;5087222;28;20126;-78
2023/06/26 02:14:30;;;;;;;13.82;11.88;;;;;;;20.04;66.66;94728.38;5087602;28;20082;-78
2023/06/26 02:16:55;;;;;;;16.02;11.82;;;;;;;19.99;66.54;94723.56;5086433;28;20032;-78
2023/06/26 02:19:21;;;;;;;13.02;11.55;;;;;;;19.99;66.70;94723.56;5085394;28;20016;-78
2023/06/26 02:21:49;;;;;;;14.05;12.23;;;;;;;19.97;66.62;94726.84;5087657;28;20039;-78
2023/06/26 02:24:15;;;;;;;16.02;12.40;;;;;;;19.90;66.91;94724.56;5086741;28;20048;-78
2023/06/26 02:26:40;;;;;;;14.35;12.00;;;;;;;19.87;66.92;94717.94;5087915;28;20082;-78
2023/06/26 02:29:06;;;;;;;16.13;13.32;;;;;;;19.88;67.03;94725.03;5086650;28;20135;-76
2023/06/26 02:31:31;;;;;;;19.17;14.23;;;;;;;19.86;66.98;94713.63;5087502;28;20028;-78
2023/06/26 02:33:57;;;;;;;16.75;13.43;;;;;;;19.87;67.01;94726.31;5086880;28;20513;-78
2023/06/26 02:36:22;;;;;;;16.75;14.23;;;;;;;19.82;66.97;94727.06;5086907;28;20477;-78
2023/06/26 02:38:48;;;;;;;18.70;14.82;;;;;;;19.81;67.18;94731.13;5087294;28;20072;-78
2023/06/26 02:41:13;;;;;;;17.58;14.65;;;;;;;19.80;67.37;94732.38;5086345;28;20068;-77
2023/06/26 02:43:39;;;;;;;16.20;14.18;;;;;;;19.80;67.27;94729.59;5087619;28;20036;-77
2023/06/26 02:46:04;;;;;;;17.63;15.20;;;;;;;19.84;67.46;94734.91;5086185;28;20016;-77
2023/06/26 02:48:29;;;;;;;18.05;15.15;;;;;;;19.79;67.54;94733.66;5087386;28;20099;-77
2023/06/26 02:50:55;;;;;;;16.73;14.93;;;;;;;19.79;67.47;94735.69;5086546;28;20629;-76
2023/06/26 02:53:20;;;;;;;17.95;15.60;;;;;;;19.76;67.20;94723.50;5086535;28;20020;-77
2023/06/26 02:55:47;;;;;;;17.25;15.02;;;;;;;19.76;67.55;94733.88;5086831;28;20048;-78
2023/06/26 02:58:13;;;;;;;20.77;14.98;;;;;;;19.74;67.32;94720.44;5085932;28;20020;-77
2023/06/26 03:00:41;;;;;;;17.98;16.08;;;;;;;19.78;67.56;94731.34;5087104;28;20028;-78
2023/06/26 03:03:07;;;;;;;17.45;14.38;;;;;;;19.81;67.24;94730.34;5085761;28;20024;-78
2023/06/26 03:05:32;;;;;;;18.30;15.15;;;;;;;19.71;67.06;94729.81;5087232;28;20090;-77
2023/06/26 03:07:57;;;;;;;18.00;15.63;;;;;;;19.71;67.44;94726.25;5086188;28;20016;-77
2023/06/26 03:10:23;;;;;;;17.63;15.82;;;;;;;19.70;67.23;94731.09;5086258;28;20571;-77
2023/06/26 03:12:48;;;;;;;17.35;15.45;;;;;;;19.69;67.49;94729.56;5086156;28;20027;-77
2023/06/26 03:15:13;;;;;;;17.27;15.55;;;;;;;19.72;67.04;94727.78;5085993;28;20178;-77
2023/06/26 03:17:39;;;;;;;20.45;16.95;;;;;;;19.73;67.10;94734.91;5086840;28;20107;-77
2023/06/26 03:20:06;;;;;;;17.60;15.68;;;;;;;19.73;67.24;94738.47;5085292;28;20034;-77
2023/06/26 03:22:33;;;;;;;20.83;16.08;;;;;;;19.71;67.35;94735.38;5086929;28;20042;-76
2023/06/26 03:24:58;;;;;;;19.60;16.75;;;;;;;19.73;66.92;94727.31;5084215;28;20028;-77
2023/06/26 03:27:23;;;;;;;19.23;16.15;;;;;;;19.70;66.97;94731.09;5086100;28;20073;-77
2023/06/26 03:29:49;;;;;;;19.83;17.02;;;;;;;19.69;67.39;94740.72;5085598;28;20096;-77
2023/06/26 03:32:14;;;;;;;21.20;17.38;;;;;;;19.65;67.27;94731.81;5085983;28;20059;-78
2023/06/26 03:34:39;;;;;;;21.50;17.35;;;;;;;19.68;67.10;94728.03;5086412;28;20095;-77
2023/06/26 03:37:05;;;;;;;20.40;16.92;;;;;;;19.68;67.25;94739.19;5085119;28;20455;-77
2023/06/26 03:39:30;;;;;;;19.35;15.98;;;;;;;19.67;67.16;94740.47;5086555;28;20107;-77
2023/06/26 03:42:00;;;;;;;20.75;16.90;;;;;;;19.71;67.17;94738.19;5085215;28;20475;-77
2023/06/26 03:44:25;;;;;;;20.48;17.25;;;;;;;19.70;67.46;94738.69;5086401;28;20031;-78
2023/06/26 03:46:51;;;;;;;21.45;17.67;;;;;;;19.75;67.10;94740.75;5085291;28;20103;-77
2023/06/26 03:49:17;;;;;;;19.98;16.13;;;;;;;19.72;67.35;94730.56;5085779;28;20093;-80
2023/06/26 03:51:42;;;;;;;19.38;17.35;;;;;;;19.71;67.25;94738.19;5070138;28;20123;-77
2023/06/26 03:54:08;;;;;;;19.40;16.60;;;;;;;19.72;67.20;94734.13;5063673;28;20108;-77
2023/06/26 03:56:33;;;;;;;18.85;16.95;;;;;;;19.75;66.94;94732.38;5065902;28;20066;-77
2023/06/26 03:58:58;;;;;;;19.67;16.65;;;;;;;19.69;67.08;94735.13;5063531;28;20016;-77
2023/06/26 04:01:24;;;;;;;19.23;17.23;;;;;;;19.72;66.82;94734.13;5066106;28;20031;-78
2023/06/26 04:03:49;;;;;;;19.60;17.20;;;;;;;19.70;66.75;94731.09;5064783;28;20379;-76
2023/06/26 04:06:15;;;;;;;18.58;16.67;;;;;;;19.72;66.50;94736.16;5065770;28;20055;-76
2023/06/26 04:08:40;;;;;;;17.40;15.52;;;;;;;19.71;67.11;94737.41;5065349;28;20467;-77
2023/06/26 04:11:06;;;;;;;18.75;16.75;;;;;;;19.75;66.59;94735.16;5065291;28;20029;-76
2023/06/26 04:13:31;;;;;;;20.63;16.80;;;;;;;19.68;66.45;94719.69;5047961;28;20021;-78
2023/06/26 04:15:57;;;;;;;20.92;17.65;;;;;;;19.82;66.29;94740.25;5064640;28;20108;-76
2023/06/26 04:18:22;;;;;;;20.15;16.60;;;;;;;19.80;66.27;94737.97;5064884;28;20069;-77
2023/06/26 04:21:13;;;;;;;19.75;16.70;;;;;;;19.84;66.35;94735.72;5064708;28;20067;-76
2023/06/26 04:23:39;;;;;;;19.27;15.90;;;;;;;19.84;66.73;94746.06;5065548;28;20082;-77
2023/06/26 04:26:06;;;;;;;19.33;17.08;;;;;;;19.85;66.60;94742.03;5063896;28;20028;-78
2023/06/26 04:28:35;;;;;;;17.35;15.55;;;;;;;19.96;66.64;94746.91;5065187;28;20146;-77
2023/06/26 04:31:04;;;;;;;19.08;15.82;;;;;;;20.02;66.33;94753.25;5065556;28;20085;-76
2023/06/26 04:33:29;;;;;;;18.88;16.10;;;;;;;20.02;66.03;94742.84;5064780;28;20040;-77
2023/06/26 04:35:55;;;;;;;18.40;15.05;;;;;;;20.09;65.71;94750.72;5064273;28;20489;-77
2023/06/26 04:38:21;;;;;;;19.02;15.50;;;;;;;20.11;66.09;94756.56;5064731;28;20099;-78
2023/06/26 04:40:47;;;;;;;17.10;15.02;;;;;;;20.11;66.11;94748.19;5068979;28;20031;-77
2023/06/26 04:43:12;;;;;;;21.35;15.85;;;;;;;20.21;66.05;94750.75;5067133;28;20032;-72
2023/06/26 04:45:38;;;;;;;20.52;16.05;;;;;;;20.26;66.06;94750.75;5051007;28;20024;-78
2023/06/26 04:48:03;;;;;;;18.10;15.07;;;;;;;20.21;65.97;94748.72;5067645;28;20024;-79
2023/06/26 04:50:30;;;;;;;16.63;14.75;;;;;;;20.23;65.97;94756.56;5068020;28;20028;-77
2023/06/26 04:52:56;;;;;;;19.48;15.05;;;;;;;20.26;66.00;94744.41;5067946;28;20035;-77
2023/06/26 04:55:24;;;;;;;17.15;15.35;;;;;;;20.29;66.05;94748.97;5066564;28;20048;-77
2023/06/26 04:57:49;;;;;;;16.65;14.75;;;;;;;20.34;65.87;94745.44;5067847;28;20036;-77
2023/06/26 05:00:15;;;;;;;16.42;14.70;;;;;;;20.31;65.90;94752.81;5068237;28;20024;-78
2023/06/26 05:02:41;;;;;;;16.77;14.18;;;;;;;20.34;65.40;94739.84;5069044;28;20555;-78
2023/06/26 05:05:06;;;;;;;16.63;14.85;;;;;;;20.36;65.35;94749.25;5068599;28;20106;-79
2023/06/26 05:07:31;;;;;;;17.02;14.18;;;;;;;20.38;64.86;94752.28;5068149;28;20063;-77
2023/06/26 05:09:57;;;;;;;16.25;13.95;;;;;;;20.45;64.80;94747.47;5068687;28;20130;-79
2023/06/26 05:12:22;;;;;;;15.90;14.20;;;;;;;20.43;64.87;94751.53;5066944;28;20020;-79
2023/06/26 05:14:48;;;;;;;16.02;13.38;;;;;;;20.46;64.89;94757.41;5066727;28;20049;-78
2023/06/26 05:17:14;;;;;;;16.65;14.00;;;;;;;20.54;64.79;94762.00;5066931;28;20031;-78
2023/06/26 05:19:40;;;;;;;16.23;13.85;;;;;;;20.58;64.62;94758.94;5068447;28;20028;-78
2023/06/26 05:22:09;;;;;;;15.45;13.88;;;;;;;20.59;64.18;94764.03;5068144;28;20458;-78
2023/06/26 05:24:35;;;;;;;16.25;14.00;;;;;;;20.63;64.22;94766.53;5067903;28;20035;-79
2023/06/26 05:27:01;;;;;;;15.23;13.57;;;;;;;20.71;64.12;94761.25;5067164;28;20095;-79
2023/06/26 05:29:27;;;;;;;15.95;13.75;;;;;;;20.75;63.90;94775.69;5067260;28;20029;-79
2023/06/26 05:31:53;;;;;;;18.40;14.90;;;;;;;20.77;63.83;94773.16;5068635;28;20085;-79
2023/06/26 05:34:19;;;;;;;14.65;12.95;;;;;;;20.79;63.73;94768.59;5067586;28;20033;-78
2023/06/26 05:36:45;;;;;;;14.43;12.60;;;;;;;20.77;63.62;94767.59;5068465;28;20037;-78
2023/06/26 05:39:11;;;;;;;14.48;12.95;;;;;;;20.78;62.92;94781.03;5067598;28;20036;-78
2023/06/26 05:41:37;;;;;;;15.05;13.10;;;;;;;20.82;62.80;94778.00;5067867;28;20024;-78
2023/06/26 05:44:02;;;;;;;14.80;13.23;;;;;;;20.83;62.73;94782.31;5068308;28;20407;-78
2023/06/26 05:46:27;;;;;;;13.90;12.48;;;;;;;20.88;62.78;94771.13;5067133;28;20078;-79
2023/06/26 05:48:53;;;;;;;15.15;12.57;;;;;;;20.97;62.44;94770.09;5067943;28;20024;-78
2023/06/26 05:51:18;;;;;;;15.55;12.73;;;;;;;21.00;62.39;94777.47;5066598;28;20426;-78
2023/06/26 05:53:44;;;;;;;15.23;13.32;;;;;;;21.08;62.44;94777.72;5066736;28;20110;-79
2023/06/26 05:56:10;;;;;;;14.60;13.13;;;;;;;21.15;61.72;94777.19;5065636;28;20052;-79
2023/06/26 05:58:35;;;;;;;14.45;12.95;;;;;;;21.20;61.94;94776.41;5066125;28;20032;-79
2023/06/26 06:01:01;;;;;;;14.68;13.10;;;;;;;21.26;61.77;94785.56;5067499;28;20048;-78
2023/06/26 06:03:26;;;;;;;16.83;13.65;;;;;;;21.36;61.73;94774.91;5067209;28;20075;-78
2023/06/26 06:05:53;;;;;;;13.98;12.60;;;;;;;21.43;61.43;94779.97;5067995;28;20031;-78
2023/06/26 06:08:18;;;;;;;14.02;12.68;;;;;;;21.43;61.61;94779.97;5065226;28;20047;-77
2023/06/26 06:10:44;;;;;;;16.02;13.13;;;;;;;21.52;61.33;94787.31;5067762;28;20109;-77
2023/06/26 06:13:09;;;;;;;16.45;13.15;;;;;;;21.60;61.19;94789.06;5064973;28;20122;-78
2023/06/26 06:15:34;;;;;;;13.40;12.00;;;;;;;21.69;60.47;94788.03;5067522;28;20021;-77
2023/06/26 06:18:00;;;;;;;13.25;11.85;;;;;;;21.71;60.36;94791.06;5066851;28;20090;-77
2023/06/26 06:20:25;;;;;;;15.65;12.35;;;;;;;21.79;60.65;94780.09;5067347;28;20020;-77
2023/06/26 06:22:51;;;;;;;13.77;12.18;;;;;;;21.86;59.70;94777.53;5067395;28;20055;-78
2023/06/26 06:25:16;;;;;;;14.02;12.20;;;;;;;21.98;59.00;94779.00;5066182;28;20025;-78
2023/06/26 06:27:42;;;;;;;14.18;12.63;;;;;;;22.06;58.90;94776.41;5067602;28;20028;-78
2023/06/26 06:30:08;;;;;;;14.07;11.73;;;;;;;22.10;58.99;94779.00;5066091;28;20500;-78
2023/06/26 06:32:34;;;;;;;16.08;12.32;;;;;;;22.13;58.67;94775.13;5065980;28;20447;-77
2023/06/26 06:34:59;;;;;;;22.27;12.30;;;;;;;22.19;58.43;94778.66;5066294;28;20135;-78
2023/06/26 06:37:25;;;;;;;15.43;12.05;;;;;;;22.24;57.89;94778.63;5066890;28;20085;-78
2023/06/26 06:39:50;;;;;;;16.83;14.75;;;;;;;22.31;56.73;94771.75;5067029;28;20039;-78
2023/06/26 06:42:15;;;;;;;16.70;14.77;;;;;;;22.40;56.93;94774.22;5066141;28;20502;-78
2023/06/26 06:44:41;;;;;;;13.43;10.88;;;;;;;22.47;56.95;94770.09;5066219;28;20029;-78
2023/06/26 06:47:06;;;;;;;12.38;10.75;;;;;;;22.52;56.62;94769.31;5064394;28;20458;-78
2023/06/26 06:49:32;;;;;;;11.25;10.15;;;;;;;22.55;57.08;94767.53;5067351;28;20093;-78
2023/06/26 06:51:57;;;;;;;12.35;9.52;;;;;;;22.61;56.44;94774.59;5066029;28;20033;-78
2023/06/26 06:54:27;;;;;;;10.73;9.35;;;;;;;22.67;55.47;94780.16;5066574;28;20097;-77
2023/06/26 06:56:52;;;;;;;11.88;10.55;;;;;;;22.70;55.08;94779.88;5066661;28;20025;-78
2023/06/26 06:59:18;;;;;;;10.25;9.25;;;;;;;22.71;54.82;94772.22;5064780;28;20043;-79
2023/06/26 07:01:43;;;;;;;11.52;9.82;;;;;;;22.79;55.09;94771.16;5066105;28;20090;-78
2023/06/26 07:04:08;;;;;;;9.93;8.93;;;;;;;22.82;55.20;94765.78;5065642;28;20020;-78
2023/06/26 07:06:34;;;;;;;11.32;9.10;;;;;;;22.88;54.27;94764.50;5066928;28;20539;-77
2023/06/26 07:08:59;;;;;;;10.35;9.32;;;;;;;22.94;54.63;94770.03;5063738;28;20031;-78
2023/06/26 07:11:25;;;;;;;10.10;8.98;;;;;;;23.02;54.18;94763.34;5066594;28;20035;-77
2023/06/26 07:13:50;;;;;;;10.75;9.65;;;;;;;23.11;54.60;94770.66;5065783;28;20524;-78
2023/06/26 07:16:15;;;;;;;9.75;8.85;;;;;;;23.16;53.72;94767.03;5065899;28;20032;-78
2023/06/26 07:18:41;;;;;;;9.55;8.15;;;;;;;23.20;53.25;94761.91;5066138;28;20016;-77
2023/06/26 07:21:07;;;;;;;10.27;8.45;;;;;;;23.26;53.15;94767.47;5065361;28;20035;-78
2023/06/26 07:23:32;;;;;;;8.82;7.93;;;;;;;23.31;51.46;94766.63;5066603;28;20096;-78
2023/06/26 07:25:58;;;;;;;9.88;7.22;;;;;;;23.30;51.15;94760.28;5065275;28;20078;-78
2023/06/26 07:28:23;;;;;;;7.68;6.88;;;;;;;23.30;51.22;94763.09;5065181;28;20111;-77
2023/06/26 07:30:49;;;;;;;7.90;7.10;;;;;;;23.29;51.54;94753.16;5065074;28;20520;-78
2023/06/26 07:33:14;;;;;;;8.02;7.28;;;;;;;23.40;52.41;94751.50;5065938;28;20395;-78
2023/06/26 07:35:39;;;;;;;8.82;7.43;;;;;;;23.46;51.89;94757.84;5066086;28;20024;-78
2023/06/26 07:38:05;;;;;;;8.73;7.82;;;;;;;23.53;52.24;94755.19;5063905;28;20029;-78
2023/06/26 07:40:30;;;;;;;9.35;7.82;;;;;;;23.59;52.26;94750.28;5065974;28;20406;-77
2023/06/26 07:42:58;;;;;;;9.77;7.93;;;;;;;23.63;52.21;94754.84;5064802;28;20483;-79
2023/06/26 07:45:23;;;;;;;8.45;7.20;;;;;;;23.69;51.58;94753.50;5066571;28;20020;-78
2023/06/26 07:47:48;;;;;;;9.00;8.10;;;;;;;23.78;50.81;94755.19;5064918;28;20024;-79
2023/06/26 07:50:19;;;;;;;11.32;7.55;;;;;;;23.89;51.64;94765.53;5065694;28;20478;-79
2023/06/26 07:52:44;;;;;;;9.07;7.38;;;;;;;23.98;50.87;94754.69;5065400;28;20060;-78
2023/06/26 07:55:10;;;;;;;10.82;7.88;;;;;;;24.07;51.32;94759.91;5065114;28;20083;-78
2023/06/26 07:57:35;;;;;;;8.48;7.38;;;;;;;24.14;51.42;94761.34;5065896;28;20398;-77
2023/06/26 08:00:01;;;;;;;9.90;7.05;;;;;;;24.15;50.85;94762.91;5063399;28;20029;-77
2023/06/26 08:02:26;;;;;;;8.48;7.57;;;;;;;24.25;50.31;94763.25;5066104;28;20032;-78
2023/06/26 08:04:52;;;;;;;7.30;6.40;;;;;;;24.32;49.07;94765.47;5064676;28;20082;-78
2023/06/26 08:07:18;;;;;;;7.80;7.00;;;;;;;24.38;48.47;94757.00;5065934;28;20025;-79
2023/06/26 08:09:44;;;;;;;7.13;6.43;;;;;;;24.46;49.34;94755.84;5064942;28;20029;-78
2023/06/26 08:12:09;;;;;;;9.63;6.95;;;;;;;24.56;49.45;94759.03;5065678;28;20115;-79
2023/06/26 08:14:34;;;;;;;9.55;7.00;;;;;;;24.66;48.99;94762.19;5069425;28;20114;-78
2023/06/26 08:17:00;;;;;;;6.70;6.00;;;;;;;24.72;48.28;94751.63;5069354;28;20540;-78
2023/06/26 08:19:25;;;;;;;6.43;5.78;;;;;;;24.80;47.89;94760.94;5069807;28;20029;-78
2023/06/26 08:21:51;;;;;;;9.25;5.88;;;;;;;24.81;47.13;94760.41;5068572;28;20465;-79
2023/06/26 08:24:18;;;;;;;11.27;7.05;;;;;;;24.87;46.44;94754.69;5069848;28;20040;-79
2023/06/26 08:26:44;;;;;;;6.50;5.80;;;;;;;24.90;47.20;94754.38;5068639;28;20162;-78
2023/06/26 08:29:10;;;;;;;7.80;6.75;;;;;;;24.98;46.71;94762.19;5069353;28;20051;-79
2023/06/26 08:31:37;;;;;;;9.38;5.65;;;;;;;25.08;47.08;94761.28;5067587;28;20463;-79
2023/06/26 08:34:03;;;;;;;7.15;5.65;;;;;;;25.13;46.42;94765.28;5067358;28;20040;-79
2023/06/26 08:36:28;;;;;;;9.32;7.70;;;;;;;25.21;46.88;94757.72;5069290;28;20519;-79
2023/06/26 08:38:54;;;;;;;7.47;6.75;;;;;;;25.32;46.40;94765.22;5068413;28;20020;-78
2023/06/26 08:41:19;;;;;;;17.65;7.45;;;;;;;25.40;45.79;94760.44;5069583;28;20056;-78
2023/06/26 08:43:45;;;;;;;6.43;5.72;;;;;;;25.50;45.62;94761.56;5068223;28;20028;-79
2023/06/26 08:46:10;;;;;;;6.63;5.97;;;;;;;25.59;44.91;94757.56;5068118;28;20074;-79
2023/06/26 08:48:39;;;;;;;7.97;5.93;;;;;;;25.60;44.83;94767.50;5068315;28;20046;-79
2023/06/26 08:51:09;;;;;;;6.60;5.72;;;;;;;25.62;44.59;94765.66;5067204;28;20028;-77
2023/06/26 08:53:57;;;;;;;10.25;5.78;;;;;;;25.73;44.88;94769.56;5069063;28;20024;-78
2023/06/26 08:56:24;;;;;;;7.47;5.95;;;;;;;25.77;45.51;94767.97;5068138;28;20048;-78
2023/06/26 08:58:50;;;;;;;6.25;5.65;;;;;;;25.80;44.85;94763.31;5069415;28;20021;-79
2023/06/26 09:01:16;;;;;;;7.72;6.07;;;;;;;25.72;44.27;94751.16;5067690;28;20883;-78
2023/06/26 09:03:42;;;;;;;8.73;6.55;;;;;;;25.63;44.74;94755.94;5067691;28;20431;-79
2023/06/26 09:06:07;;;;;;;8.40;5.80;;;;;;;25.66;44.51;94757.66;5068226;28;20028;-78
2023/06/26 09:08:33;;;;;;;6.72;5.13;;;;;;;25.73;44.25;94756.25;5068369;28;20177;-79
2023/06/26 09:10:58;;;;;;;6.15;4.80;;;;;;;25.73;44.00;94758.31;5067309;28;20038;-78
2023/06/26 09:13:24;;;;;;;6.50;5.65;;;;;;;25.62;43.88;94748.78;5068287;28;20048;-79
2023/06/26 09:15:53;;;;;;;7.72;5.30;;;;;;;25.72;43.62;94756.81;5067632;28;20028;-78
2023/06/26 09:18:21;;;;;;;6.00;5.00;;;;;;;25.74;43.60;94757.78;5066067;28;20108;-79
2023/06/26 09:20:47;;;;;;;8.20;5.30;;;;;;;25.73;43.52;94758.31;5067356;28;20068;-78
2023/06/26 09:23:13;;;;;;;5.97;5.15;;;;;;;25.80;43.20;94760.50;5067951;28;20411;-79
2023/06/26 09:25:39;;;;;;;7.75;5.00;;;;;;;25.89;43.48;94749.56;5068034;28;20031;-79
2023/06/26 09:28:06;;;;;;;5.88;5.18;;;;;;;26.01;43.00;94746.50;5066714;28;20039;-78
2023/06/26 09:30:34;;;;;;;7.10;5.57;;;;;;;26.03;42.66;94736.22;5067698;28;20494;-79
2023/06/26 09:33:19;;;;;;;8.48;5.50;;;;;;;26.15;42.40;94748.78;5066839;28;20484;-78
2023/06/26 09:35:46;;;;;;;8.85;5.38;;;;;;;26.23;42.19;94748.09;5066264;28;20032;-78
2023/06/26 09:38:12;;;;;;;7.50;5.18;;;;;;;26.13;41.48;94751.34;5068292;28;20511;-78
2023/06/26 09:40:38;;;;;;;6.03;4.60;;;;;;;26.07;41.29;94753.53;5067628;28;20028;-78
2023/06/26 09:43:05;;;;;;;6.07;5.38;;;;;;;26.16;41.42;94744.66;5066149;28;20027;-77
2023/06/26 09:45:34;;;;;;;9.20;5.60;;;;;;;26.32;41.92;94756.84;5068009;28;20109;-78
2023/06/26 09:48:02;;;;;;;6.70;5.25;;;;;;;26.45;41.49;94747.63;5066912;28;20807;-78
2023/06/26 09:50:28;;;;;;;7.88;5.00;;;;;;;26.52;40.18;94749.03;5067107;28;20119;-79
2023/06/26 09:52:53;;;;;;;6.63;4.65;;;;;;;26.67;39.72;94746.38;5067062;28;20107;-78
2023/06/26 09:55:21;;;;;;;6.43;4.97;;;;;;;26.76;40.09;94745.88;5068004;28;20048;-77
2023/06/26 09:57:47;;;;;;;5.85;5.07;;;;;;;26.71;39.49;94739.06;5066040;28;20040;-77
2023/06/26 10:00:14;;;;;;;6.80;4.93;;;;;;;26.82;39.38;94754.22;5066209;28;20029;-77
2023/06/26 10:02:39;;;;;;;6.20;4.70;;;;;;;26.86;39.34;94746.16;5066795;28;20031;-79
2023/06/26 10:05:05;;;;;;;7.03;4.32;;;;;;;26.77;40.58;94749.44;5066764;28;20024;-79
2023/06/26 10:07:31;;;;;;;6.45;4.95;;;;;;;26.79;38.99;94750.44;5066658;28;20384;-78
2023/06/26 10:09:56;;;;;;;7.25;5.28;;;;;;;26.79;39.24;94744.78;5065277;28;20040;-78
2023/06/26 10:12:28;;;;;;;9.18;5.15;;;;;;;26.88;39.22;94740.72;5066475;28;20501;-78
2023/06/26 10:14:56;;;;;;;5.95;4.45;;;;;;;27.10;39.38;94743.03;5066852;28;20024;-78
2023/06/26 10:17:22;;;;;;;6.38;5.60;;;;;;;27.17;38.56;94747.22;5066921;28;20024;-78
2023/06/26 10:19:48;;;;;;;7.82;5.50;;;;;;;27.09;37.58;94741.50;5065900;28;20020;-78
2023/06/26 10:22:17;;;;;;;7.20;5.00;;;;;;;27.10;38.16;94750.72;5066626;28;20024;-77
2023/06/26 10:24:44;;;;;;;9.90;5.50;;;;;;;27.09;38.21;94744.34;5067622;28;20130;-78
2023/06/26 10:27:20;;;;;;;7.93;5.75;;;;;;;27.12;38.21;94748.09;5064863;28;20067;-78
2023/06/26 10:29:49;;;;;;;6.82;5.13;;;;;;;27.16;38.43;94746.47;5067385;28;20029;-78
2023/06/26 10:32:15;;;;;;;7.15;5.63;;;;;;;27.22;38.65;94751.97;5066546;28;20440;-78
2023/06/26 10:34:40;;;;;;;6.70;5.22;;;;;;;27.14;37.54;94749.09;5065338;28;20560;-78
2023/06/26 10:37:06;;;;;;;6.38;5.20;;;;;;;27.04;37.49;94745.19;5065757;28;20111;-78
2023/06/26 10:39:52;;;;;;;10.70;5.45;;;;;;;26.99;38.15;94749.66;5066577;28;20103;-78
2023/06/26 10:42:19;;;;;;;9.27;5.28;;;;;;;26.91;38.29;94745.28;5067314;28;20031;-78
2023/06/26 10:44:46;;;;;;;6.45;5.15;;;;;;;26.82;38.98;94745.75;5064515;28;20563;-77
2023/06/26 10:47:31;;;;;;;7.32;4.75;;;;;;;26.81;38.78;94741.41;5065446;28;20024;-78
2023/06/26 10:49:56;;;;;;;5.88;4.82;;;;;;;26.60;38.98;94747.03;5066747;28;20028;-78
2023/06/26 10:52:22;;;;;;;7.38;4.85;;;;;;;26.60;39.11;94736.50;5065975;28;20063;-77
2023/06/26 10:54:47;;;;;;;6.07;4.43;;;;;;;26.66;38.98;94739.19;5065622;28;20074;-79
2023/06/26 10:57:23;;;;;;;6.95;4.95;;;;;;;26.67;38.78;94735.84;5065790;28;20031;-79
2023/06/26 10:59:49;;;;;;;6.47;5.30;;;;;;;26.67;39.14;94733.03;5067172;28;20158;-77
2023/06/26 11:02:15;;;;;;;5.32;4.80;;;;;;;26.67;38.63;94735.09;5065545;28;20029;-78
2023/06/26 11:04:45;;;;;;;6.97;4.80;;;;;;;26.69;38.67;94730.41;5065533;28;20039;-78
2023/06/26 11:07:24;;;;;;;5.82;5.03;;;;;;;26.67;38.67;94740.72;5066189;28;20177;-78
2023/06/26 11:10:01;;;;;;;6.20;4.80;;;;;;;26.66;39.06;94734.31;5066062;28;20032;-78
2023/06/26 11:12:47;;;;;;;5.93;5.20;;;;;;;26.76;38.79;94728.97;5066777;28;20036;-78
2023/06/26 11:15:14;;;;;;;8.07;5.07;;;;;;;26.67;38.98;94733.03;5064151;28;20056;-78
2023/06/26 11:17:41;;;;;;;9.07;5.15;;;;;;;26.64;38.75;94734.13;5066183;28;20506;-78
2023/06/26 11:20:14;;;;;;;7.15;5.40;;;;;;;26.54;38.58;94727.44;5066075;28;20020;-79
2023/06/26 11:22:41;;;;;;;8.48;5.50;;;;;;;26.49;39.02;94731.13;5064325;28;20459;-79